createdAt,value
2022-12-05T00:00:36.128Z,93.49
2022-12-05T00:03:05.950Z,93.31
2022-12-05T00:05:32.378Z,93.11
2022-12-05T00:07:58.894Z,93.35
2022-12-05T00:10:25.390Z,93.64
2022-12-05T00:12:51.833Z,92.63
2022-12-05T00:15:18.232Z,92.73
2022-12-05T00:17:44.650Z,93.03
2022-12-05T00:20:11.190Z,92.51
2022-12-05T00:22:38.520Z,92.37
2022-12-05T00:25:06.393Z,93.23
2022-12-05T00:27:32.931Z,92.98
2022-12-05T00:29:59.615Z,93.02
2022-12-05T00:32:28.016Z,92.49
2022-12-05T00:34:54.403Z,92.75
2022-12-05T00:37:20.914Z,92.63
2022-12-05T00:39:47.297Z,92.65
2022-12-05T00:42:13.727Z,92.83
2022-12-05T00:44:40.120Z,92.34
2022-12-05T00:47:06.581Z,92.84
2022-12-05T00:49:32.993Z,91.90
2022-12-05T00:51:59.467Z,91.71
2022-12-05T00:54:25.881Z,91.14
2022-12-05T00:56:56.396Z,91.83
2022-12-05T00:59:23.219Z,91.91
2022-12-05T01:01:50.873Z,92.10
2022-12-05T01:04:19.261Z,93.36
2022-12-05T01:06:45.922Z,95.63
2022-12-05T01:09:16.713Z,96.25
2022-12-05T01:11:43.639Z,96.73
2022-12-05T01:14:10.562Z,96.83
2022-12-05T01:16:38.213Z,96.67
2022-12-05T01:19:09.225Z,97.35
2022-12-05T01:21:35.632Z,96.72
2022-12-05T01:24:02.257Z,95.57
2022-12-05T01:26:28.671Z,95.69
2022-12-05T01:28:55.517Z,95.16
2022-12-05T01:31:29.408Z,94.66
2022-12-05T01:33:58.060Z,94.89
2022-12-05T01:36:25.402Z,96.15
2022-12-05T01:38:52.167Z,95.90
2022-12-05T01:41:20.394Z,95.28
2022-12-05T01:44:16.066Z,95.66
2022-12-05T01:46:47.542Z,96.50
2022-12-05T01:49:15.592Z,95.75
2022-12-05T01:51:46.902Z,95.17
2022-12-05T01:54:13.917Z,94.94
2022-12-05T01:56:42.393Z,94.20
2022-12-05T01:59:11.671Z,94.66
2022-12-05T02:01:38.621Z,95.32
2022-12-05T02:04:06.106Z,96.38
2022-12-05T02:06:33.072Z,95.68
2022-12-05T02:08:59.541Z,95.58
2022-12-05T02:11:27.172Z,96.50
2022-12-05T02:14:05.788Z,96.43
2022-12-05T02:16:49.096Z,95.59
2022-12-05T02:19:15.582Z,93.59
2022-12-05T02:22:00.648Z,93.34
2022-12-05T02:24:27.057Z,94.25
2022-12-05T02:26:53.502Z,94.52
2022-12-05T02:29:19.937Z,95.23
2022-12-05T02:31:56.018Z,94.91
2022-12-05T02:34:34.165Z,94.94
2022-12-05T02:37:05.926Z,94.25
2022-12-05T02:39:32.337Z,94.68
2022-12-05T02:42:02.913Z,94.71
2022-12-05T02:44:33.960Z,93.99
2022-12-05T02:47:00.780Z,94.74
2022-12-05T02:49:30.377Z,94.99
2022-12-05T02:51:58.139Z,95.32
2022-12-05T02:54:26.725Z,95.29
2022-12-05T02:56:54.539Z,95.86
2022-12-05T02:59:23.467Z,96.00
2022-12-05T03:01:50.788Z,97.27
2022-12-05T03:04:20.144Z,97.30
2022-12-05T03:06:59.106Z,97.97
2022-12-05T03:09:28.353Z,98.19
2022-12-05T03:11:59.856Z,98.76
2022-12-05T03:14:28.955Z,99.59
2022-12-05T03:16:57.917Z,100.00
2022-12-05T03:19:31.107Z,100.00
2022-12-05T03:22:20.897Z,100.00
2022-12-05T03:24:47.324Z,100.00
2022-12-05T03:27:16.714Z,100.00
2022-12-05T03:29:51.105Z,100.00
2022-12-05T03:32:17.497Z,100.00
2022-12-05T03:34:44.008Z,100.00
2022-12-05T03:37:20.282Z,100.00
2022-12-05T03:39:49.796Z,100.00
2022-12-05T03:42:19.511Z,100.00
2022-12-05T03:44:51.549Z,100.00
2022-12-05T03:47:25.870Z,100.00
2022-12-05T03:49:54.725Z,100.00
2022-12-05T03:52:24.204Z,100.00
2022-12-05T03:54:55.222Z,100.00
2022-12-05T03:57:33.359Z,100.00
2022-12-05T04:00:10.002Z,100.00
2022-12-05T04:02:45.670Z,100.00
2022-12-05T04:05:15.267Z,100.00
2022-12-05T04:07:43.366Z,100.00
2022-12-05T04:10:15.532Z,100.00
2022-12-05T04:12:45.018Z,100.00
2022-12-05T04:15:20.603Z,100.00
2022-12-05T04:17:53.811Z,100.00
2022-12-05T04:20:43.121Z,100.00
2022-12-05T04:23:10.209Z,100.00
2022-12-05T04:25:39.631Z,100.00
2022-12-05T04:28:19.565Z,100.00
2022-12-05T04:30:50.401Z,100.00
2022-12-05T04:33:23.462Z,100.00
2022-12-05T04:35:55.068Z,100.00
2022-12-05T04:38:27.721Z,100.00
2022-12-05T04:40:57.485Z,100.00
2022-12-05T04:43:25.754Z,100.00
2022-12-05T04:45:54.049Z,100.00
2022-12-05T04:48:21.749Z,100.00
2022-12-05T04:50:49.347Z,100.00
2022-12-05T04:53:16.794Z,100.00
2022-12-05T04:55:46.520Z,99.95
2022-12-05T04:58:14.843Z,100.00
2022-12-05T05:00:56.343Z,100.00
2022-12-05T05:03:30.240Z,99.56
2022-12-05T05:05:57.208Z,98.81
2022-12-05T05:08:25.595Z,98.90
2022-12-05T05:11:04.357Z,99.30
2022-12-05T05:13:30.869Z,99.16
2022-12-05T05:15:57.333Z,99.07
2022-12-05T05:18:23.846Z,99.53
2022-12-05T05:20:50.303Z,100.00
2022-12-05T05:23:16.726Z,100.00
2022-12-05T05:25:43.114Z,100.00
2022-12-05T05:28:09.556Z,100.00
2022-12-05T05:30:35.985Z,100.00
2022-12-05T05:33:02.394Z,100.00
2022-12-05T05:35:28.776Z,100.00
2022-12-05T05:37:55.197Z,100.00
2022-12-05T05:40:21.619Z,100.00
2022-12-05T05:42:49.274Z,100.00
2022-12-05T05:45:16.160Z,100.00
2022-12-05T05:47:43.159Z,100.00
2022-12-05T05:50:10.081Z,100.00
2022-12-05T05:52:37.341Z,100.00
2022-12-05T05:55:05.371Z,100.00
2022-12-05T05:57:31.784Z,100.00
2022-12-05T05:59:58.539Z,98.76
2022-12-05T06:02:25.156Z,99.05
2022-12-05T06:04:51.594Z,96.89
2022-12-05T06:07:17.984Z,96.73
2022-12-05T06:09:44.452Z,97.46
2022-12-05T06:12:10.863Z,96.36
2022-12-05T06:14:37.485Z,96.12
2022-12-05T06:17:05.102Z,95.17
2022-12-05T06:19:31.626Z,96.08
2022-12-05T06:21:58.040Z,96.50
2022-12-05T06:24:24.446Z,96.37
2022-12-05T06:26:50.923Z,95.67
2022-12-05T06:29:20.509Z,94.26
2022-12-05T06:31:49.311Z,93.29
2022-12-05T06:34:15.764Z,93.53
2022-12-05T06:36:42.252Z,93.94
2022-12-05T06:39:09.164Z,94.33
2022-12-05T06:41:35.653Z,93.76
2022-12-05T06:44:02.811Z,94.25
2022-12-05T06:46:29.849Z,93.48
2022-12-05T06:48:57.310Z,94.76
2022-12-05T06:51:24.202Z,94.02
2022-12-05T06:53:50.683Z,94.07
2022-12-05T06:56:18.318Z,94.43
2022-12-05T06:58:45.171Z,95.24
2022-12-05T07:01:33.678Z,96.49
2022-12-05T07:04:00.804Z,98.38
2022-12-05T07:06:27.894Z,97.58
2022-12-05T07:08:54.422Z,98.00
2022-12-05T07:11:20.859Z,96.95
2022-12-05T07:13:47.443Z,97.60
2022-12-05T07:16:13.945Z,97.54
2022-12-05T07:18:40.775Z,96.89
2022-12-05T07:21:12.818Z,96.08
2022-12-05T07:23:40.372Z,95.90
2022-12-05T07:26:07.807Z,95.43
2022-12-05T07:28:34.461Z,94.51
2022-12-05T07:31:05.730Z,94.54
2022-12-05T07:33:32.280Z,95.68
2022-12-05T07:35:59.440Z,94.34
2022-12-05T07:38:25.996Z,93.58
2022-12-05T07:40:52.380Z,94.25
2022-12-05T07:43:18.941Z,93.69
2022-12-05T07:45:45.392Z,93.99
2022-12-05T07:48:16.967Z,94.49
2022-12-05T07:50:44.878Z,94.66
2022-12-05T07:53:11.331Z,94.95
2022-12-05T07:55:38.356Z,95.77
2022-12-05T07:58:04.938Z,96.23
2022-12-05T08:00:31.453Z,97.06
2022-12-05T08:02:58.043Z,97.97
2022-12-05T08:05:24.613Z,97.87
2022-12-05T08:07:51.098Z,98.13
2022-12-05T08:10:17.539Z,98.45
2022-12-05T08:12:43.941Z,98.19
2022-12-05T08:15:10.491Z,97.28
2022-12-05T08:17:37.082Z,96.82
2022-12-05T08:20:03.644Z,95.17
2022-12-05T08:22:30.213Z,94.28
2022-12-05T08:24:56.738Z,93.32
2022-12-05T08:27:23.424Z,93.47
2022-12-05T08:29:49.893Z,93.28
2022-12-05T08:32:16.289Z,93.06
2022-12-05T08:34:42.773Z,93.18
2022-12-05T08:37:09.194Z,91.63
2022-12-05T08:39:38.652Z,90.76
2022-12-05T08:42:05.495Z,90.94
2022-12-05T08:44:31.935Z,90.53
2022-12-05T08:46:58.352Z,90.51
2022-12-05T08:49:24.771Z,89.47
2022-12-05T08:51:51.218Z,88.38
2022-12-05T08:54:17.795Z,87.98
2022-12-05T08:56:44.233Z,88.15
2022-12-05T08:59:11.012Z,88.39
2022-12-05T09:01:39.404Z,88.21
2022-12-05T09:04:06.373Z,87.79
2022-12-05T09:06:33.094Z,88.10
2022-12-05T09:09:00.544Z,88.20
2022-12-05T09:11:28.300Z,88.77
2022-12-05T09:13:56.165Z,87.82
2022-12-05T09:16:24.492Z,88.05
2022-12-05T09:18:51.377Z,89.27
2022-12-05T09:21:19.239Z,88.08
2022-12-05T09:23:45.850Z,88.44
2022-12-05T09:26:13.995Z,88.42
2022-12-05T09:28:40.941Z,87.29
2022-12-05T09:31:12.356Z,87.50
2022-12-05T09:33:39.155Z,87.17
2022-12-05T09:36:06.654Z,87.11
2022-12-05T09:38:33.261Z,86.43
2022-12-05T09:41:11.518Z,86.94
2022-12-05T09:43:58.372Z,87.08
2022-12-05T09:46:24.843Z,86.23
2022-12-05T09:48:52.113Z,86.79
2022-12-05T09:51:18.598Z,86.18
2022-12-05T09:53:45.144Z,87.00
2022-12-05T09:56:30.774Z,87.07
2022-12-05T09:58:58.042Z,85.40
2022-12-05T10:01:41.943Z,85.16
2022-12-05T10:04:11.257Z,85.62
2022-12-05T10:06:41.230Z,86.19
2022-12-05T10:09:08.751Z,85.30
2022-12-05T10:11:39.423Z,85.14
2022-12-05T10:14:08.588Z,86.28
2022-12-05T10:16:38.809Z,85.42
2022-12-05T10:19:13.502Z,86.73
2022-12-05T10:21:45.827Z,83.55
2022-12-05T10:24:15.332Z,84.74
2022-12-05T10:26:44.635Z,85.24
2022-12-05T10:29:28.392Z,86.02
2022-12-05T10:31:57.679Z,85.46
2022-12-05T10:34:26.816Z,84.74
2022-12-05T10:37:14.145Z,84.33
2022-12-05T10:39:40.546Z,84.73
2022-12-05T10:42:10.861Z,84.65
2022-12-05T10:44:37.397Z,85.93
2022-12-05T10:47:03.972Z,85.45
2022-12-05T10:49:31.336Z,84.73
2022-12-05T10:51:59.631Z,85.45
2022-12-05T10:54:29.553Z,85.40
2022-12-05T10:56:56.174Z,86.20
2022-12-05T10:59:24.049Z,86.04
2022-12-05T11:01:53.432Z,85.82
2022-12-05T11:04:23.861Z,85.82
2022-12-05T11:07:10.521Z,85.91
2022-12-05T11:09:37.761Z,85.56
2022-12-05T11:12:04.378Z,86.10
2022-12-05T11:14:31.369Z,86.65
2022-12-05T11:16:58.558Z,87.41
2022-12-05T11:19:31.074Z,88.03
2022-12-05T11:21:58.025Z,87.82
2022-12-05T11:24:27.514Z,88.80
2022-12-05T11:26:54.305Z,88.69
2022-12-05T11:29:33.174Z,88.89
2022-12-05T11:31:59.735Z,89.10
2022-12-05T11:34:40.043Z,88.90
2022-12-05T11:37:21.934Z,88.50
2022-12-05T11:39:48.398Z,88.05
2022-12-05T11:42:14.843Z,88.69
2022-12-05T11:44:50.445Z,89.11
2022-12-05T11:47:35.964Z,88.42
2022-12-05T11:50:14.635Z,89.23
2022-12-05T11:52:59.771Z,87.42
2022-12-05T11:55:29.437Z,87.83
2022-12-05T11:58:04.956Z,87.28
2022-12-05T12:01:06.917Z,90.14
2022-12-05T12:03:51.905Z,90.60
2022-12-05T12:06:18.307Z,90.18
2022-12-05T12:08:53.697Z,89.41
2022-12-05T12:11:20.115Z,89.48
2022-12-05T12:13:55.363Z,90.50
2022-12-05T12:16:21.859Z,91.78
2022-12-05T12:18:54.417Z,90.93
2022-12-05T12:21:20.776Z,89.90
2022-12-05T12:24:05.557Z,87.68
2022-12-05T12:26:35.008Z,88.31
2022-12-05T12:29:04.589Z,90.75
2022-12-05T12:31:40.113Z,88.18
2022-12-05T12:34:12.349Z,89.70
2022-12-05T12:36:43.645Z,89.13
2022-12-05T12:39:18.907Z,89.23
2022-12-05T12:41:57.069Z,90.49
2022-12-05T12:44:42.322Z,90.78
2022-12-05T12:47:19.881Z,90.90
2022-12-05T12:49:46.255Z,91.23
2022-12-05T12:52:17.197Z,91.34
2022-12-05T12:55:13.915Z,91.60
2022-12-05T12:57:36.092Z,92.48
2022-12-05T13:00:21.295Z,92.43
2022-12-05T13:02:54.588Z,92.20
2022-12-05T13:05:31.262Z,92.66
2022-12-05T13:08:11.837Z,92.61
2022-12-05T13:10:41.045Z,91.25
2022-12-05T13:13:08.226Z,91.48
2022-12-05T13:15:40.898Z,91.75
2022-12-05T13:18:12.694Z,92.34
2022-12-05T13:20:39.682Z,92.66
2022-12-05T13:23:09.243Z,92.61
2022-12-05T13:25:39.049Z,92.19
2022-12-05T13:28:06.533Z,92.72
2022-12-05T13:30:33.605Z,92.21
2022-12-05T13:33:04.482Z,92.43
2022-12-05T13:35:51.329Z,92.38
2022-12-05T13:38:40.543Z,92.32
2022-12-05T13:41:25.504Z,93.25
2022-12-05T13:44:05.919Z,93.37
2022-12-05T13:46:34.220Z,93.96
2022-12-05T13:49:17.202Z,93.88
2022-12-05T13:51:44.836Z,94.85
2022-12-05T13:54:26.161Z,94.68
2022-12-05T13:56:54.265Z,95.03
2022-12-05T13:59:39.388Z,95.58
2022-12-05T14:02:25.884Z,95.48
2022-12-05T14:04:53.803Z,95.27
2022-12-05T14:07:39.102Z,95.67
2022-12-05T14:10:05.914Z,95.78
2022-12-05T14:12:52.653Z,95.81
2022-12-05T14:15:43.426Z,96.73
2022-12-05T14:18:15.248Z,97.78
2022-12-05T14:20:49.441Z,98.30
2022-12-05T14:23:15.817Z,98.67
2022-12-05T14:25:51.627Z,98.98
2022-12-05T14:28:25.231Z,99.83
2022-12-05T14:31:10.478Z,100.00
2022-12-05T14:33:37.026Z,100.00
2022-12-05T14:36:08.334Z,100.00
2022-12-05T14:38:39.354Z,100.00
2022-12-05T14:41:14.169Z,100.00
2022-12-05T14:43:40.979Z,100.00
2022-12-05T14:46:08.722Z,100.00
2022-12-05T14:48:41.208Z,100.00
2022-12-05T14:51:36.886Z,100.00
2022-12-05T14:54:06.143Z,100.00
2022-12-05T14:56:35.028Z,100.00
2022-12-05T14:59:07.826Z,100.00
2022-12-05T15:01:51.814Z,100.00
2022-12-05T15:04:38.536Z,100.00
2022-12-05T15:07:09.406Z,100.00
2022-12-05T15:09:40.111Z,100.00
2022-12-05T15:12:11.615Z,100.00
2022-12-05T15:14:44.634Z,100.00
2022-12-05T15:17:14.918Z,100.00
2022-12-05T15:19:45.842Z,100.00
2022-12-05T15:22:15.374Z,100.00
2022-12-05T15:24:41.850Z,100.00
2022-12-05T15:27:11.777Z,100.00
2022-12-05T15:29:38.999Z,100.00
2022-12-05T15:32:11.705Z,100.00
2022-12-05T15:34:44.044Z,100.00
2022-12-05T15:37:22.474Z,100.00
2022-12-05T15:39:56.102Z,100.00
2022-12-05T15:42:29.916Z,100.00
2022-12-05T15:45:12.084Z,100.00
2022-12-05T15:47:39.024Z,100.00
2022-12-05T15:50:05.901Z,100.00
2022-12-05T15:52:33.534Z,100.00
2022-12-05T15:55:03.051Z,100.00
2022-12-05T15:57:37.214Z,100.00
2022-12-05T16:00:06.059Z,100.00
2022-12-05T16:02:35.649Z,100.00
2022-12-05T16:05:02.186Z,100.00
2022-12-05T16:07:30.227Z,100.00
2022-12-05T16:09:58.030Z,100.00
2022-12-05T16:12:33.430Z,100.00
2022-12-05T16:15:02.886Z,100.00
2022-12-05T16:17:30.938Z,100.00
2022-12-05T16:20:10.614Z,100.00
2022-12-05T16:22:38.142Z,100.00
2022-12-05T16:25:12.682Z,100.00
2022-12-05T16:27:39.717Z,100.00
2022-12-05T16:30:07.410Z,100.00
2022-12-05T16:32:34.986Z,100.00
2022-12-05T16:35:01.658Z,100.00
2022-12-05T16:37:29.509Z,100.00
2022-12-05T16:39:56.443Z,100.00
2022-12-05T16:42:24.578Z,100.00
2022-12-05T16:45:03.846Z,100.00
2022-12-05T16:47:42.320Z,100.00
2022-12-05T16:50:27.585Z,100.00
2022-12-05T16:53:09.077Z,100.00
2022-12-05T16:55:39.320Z,100.00
2022-12-05T16:58:06.040Z,100.00
2022-12-05T17:00:33.312Z,100.00
2022-12-05T17:03:25.828Z,100.00
2022-12-05T17:05:46.323Z,100.00
2022-12-05T17:08:12.874Z,100.00
2022-12-05T17:10:39.698Z,100.00
2022-12-05T17:13:06.280Z,100.00
2022-12-05T17:15:33.191Z,100.00
2022-12-05T17:18:00.645Z,100.00
2022-12-05T17:20:27.268Z,100.00
2022-12-05T17:22:53.745Z,100.00
2022-12-05T17:25:31.073Z,100.00
2022-12-05T17:27:58.749Z,100.00
2022-12-05T17:30:25.392Z,100.00
2022-12-05T17:32:51.825Z,100.00
2022-12-05T17:35:19.325Z,100.00
2022-12-05T17:37:46.006Z,100.00
2022-12-05T17:40:13.301Z,100.00
2022-12-05T17:42:40.497Z,100.00
2022-12-05T17:45:11.127Z,100.00
2022-12-05T17:47:37.678Z,100.00
2022-12-05T17:50:04.832Z,100.00
2022-12-05T17:52:31.428Z,100.00
2022-12-05T17:54:58.235Z,100.00
2022-12-05T17:57:25.222Z,100.00
2022-12-05T17:59:51.635Z,100.00
2022-12-05T18:02:19.848Z,100.00
2022-12-05T18:04:46.491Z,100.00
2022-12-05T18:07:12.904Z,100.00
2022-12-05T18:09:39.329Z,100.00
2022-12-05T18:12:05.991Z,100.00
2022-12-05T18:14:35.954Z,100.00
2022-12-05T18:17:03.284Z,100.00
2022-12-05T18:19:29.725Z,100.00
2022-12-05T18:21:56.155Z,100.00
2022-12-05T18:24:22.620Z,100.00
2022-12-05T18:26:49.090Z,100.00
2022-12-05T18:29:15.569Z,100.00
2022-12-05T18:31:42.980Z,100.00
2022-12-05T18:34:09.448Z,100.00
2022-12-05T18:36:35.863Z,100.00
2022-12-05T18:39:02.393Z,100.00
2022-12-05T18:41:28.863Z,100.00
2022-12-05T18:43:55.447Z,100.00
2022-12-05T18:46:22.099Z,100.00
2022-12-05T18:48:48.969Z,100.00
2022-12-05T18:51:17.002Z,100.00
2022-12-05T18:53:51.638Z,100.00
2022-12-05T18:56:22.869Z,100.00
2022-12-05T18:58:56.996Z,100.00
2022-12-05T19:01:23.742Z,100.00
2022-12-05T19:03:50.849Z,100.00
2022-12-05T19:06:18.620Z,100.00
2022-12-05T19:08:45.519Z,100.00
2022-12-05T19:11:13.007Z,100.00
2022-12-05T19:13:39.583Z,100.00
2022-12-05T19:16:07.698Z,100.00
2022-12-05T19:18:34.349Z,100.00
2022-12-05T19:21:01.035Z,100.00
2022-12-05T19:23:27.538Z,100.00
2022-12-05T19:25:54.928Z,100.00
2022-12-05T19:28:21.479Z,100.00
2022-12-05T19:30:47.893Z,100.00
2022-12-05T19:33:14.354Z,100.00
2022-12-05T19:35:40.861Z,100.00
2022-12-05T19:38:07.295Z,100.00
2022-12-05T19:40:33.813Z,100.00
2022-12-05T19:43:00.377Z,100.00
2022-12-05T19:45:26.804Z,100.00
2022-12-05T19:47:53.322Z,100.00
2022-12-05T19:50:19.715Z,100.00
2022-12-05T19:52:46.128Z,100.00
2022-12-05T19:55:12.575Z,100.00
2022-12-05T19:57:39.108Z,100.00
2022-12-05T20:00:06.022Z,100.00
2022-12-05T20:02:34.928Z,100.00
2022-12-05T20:05:04.100Z,100.00
2022-12-05T20:07:30.673Z,100.00
2022-12-05T20:09:57.333Z,100.00
2022-12-05T20:12:23.904Z,100.00
2022-12-05T20:14:50.391Z,100.00
2022-12-05T20:17:17.132Z,100.00
2022-12-05T20:19:43.564Z,100.00
2022-12-05T20:22:10.042Z,100.00
2022-12-05T20:24:36.834Z,100.00
2022-12-05T20:27:06.237Z,100.00
2022-12-05T20:29:32.741Z,100.00
2022-12-05T20:31:59.310Z,100.00
2022-12-05T20:34:25.754Z,100.00
2022-12-05T20:36:52.225Z,100.00
2022-12-05T20:39:18.691Z,100.00
2022-12-05T20:41:45.356Z,100.00
2022-12-05T20:44:13.438Z,100.00
2022-12-05T20:46:40.681Z,100.00
2022-12-05T20:49:07.415Z,100.00
2022-12-05T20:51:34.253Z,100.00
2022-12-05T20:54:01.450Z,100.00
2022-12-05T20:56:29.353Z,100.00
2022-12-05T20:58:57.002Z,100.00
2022-12-05T21:01:24.616Z,100.00
2022-12-05T21:03:51.799Z,100.00
2022-12-05T21:06:19.723Z,100.00
2022-12-05T21:08:46.155Z,100.00
2022-12-05T21:11:12.673Z,100.00
2022-12-05T21:13:39.249Z,100.00
2022-12-05T21:16:06.984Z,100.00
2022-12-05T21:18:33.476Z,100.00
2022-12-05T21:21:01.158Z,100.00
2022-12-05T21:23:27.626Z,100.00
2022-12-05T21:25:54.119Z,100.00
2022-12-05T21:28:20.738Z,100.00
2022-12-05T21:30:47.270Z,100.00
2022-12-05T21:33:14.228Z,100.00
2022-12-05T21:35:40.714Z,100.00
2022-12-05T21:38:07.111Z,100.00
2022-12-05T21:40:33.560Z,100.00
2022-12-05T21:42:59.982Z,100.00
2022-12-05T21:45:26.468Z,100.00
2022-12-05T21:47:52.918Z,100.00
2022-12-05T21:50:19.358Z,100.00
2022-12-05T21:52:45.781Z,100.00
2022-12-05T21:55:12.210Z,100.00
2022-12-05T21:57:39.079Z,100.00
2022-12-05T22:00:09.051Z,100.00
2022-12-05T22:02:35.848Z,100.00
2022-12-05T22:05:02.319Z,100.00
2022-12-05T22:07:28.702Z,100.00
2022-12-05T22:09:55.149Z,100.00
2022-12-05T22:12:21.762Z,100.00
2022-12-05T22:14:48.207Z,100.00
2022-12-05T22:17:14.602Z,100.00
2022-12-05T22:19:41.033Z,100.00
2022-12-05T22:22:07.418Z,100.00
2022-12-05T22:24:33.842Z,100.00
2022-12-05T22:27:00.313Z,100.00
2022-12-05T22:29:26.731Z,100.00
2022-12-05T22:31:53.279Z,100.00
2022-12-05T22:34:19.869Z,100.00
2022-12-05T22:36:47.964Z,100.00
2022-12-05T22:39:14.355Z,100.00
2022-12-05T22:41:40.778Z,100.00
2022-12-05T22:44:07.213Z,100.00
2022-12-05T22:46:33.801Z,100.00
2022-12-05T22:49:02.871Z,100.00
2022-12-05T22:51:29.692Z,100.00
2022-12-05T22:53:56.610Z,100.00
2022-12-05T22:56:24.118Z,100.00
2022-12-05T22:58:54.356Z,100.00
2022-12-05T23:01:22.506Z,100.00
2022-12-05T23:03:49.993Z,100.00
2022-12-05T23:06:17.147Z,100.00
2022-12-05T23:08:44.456Z,100.00
2022-12-05T23:11:11.609Z,100.00
2022-12-05T23:13:38.240Z,100.00
2022-12-05T23:16:07.101Z,100.00
2022-12-05T23:18:46.615Z,100.00
2022-12-05T23:21:13.199Z,100.00
2022-12-05T23:23:40.881Z,100.00
2022-12-05T23:26:07.725Z,100.00
2022-12-05T23:28:34.798Z,100.00
2022-12-05T23:31:02.062Z,100.00
2022-12-05T23:33:28.896Z,100.00
2022-12-05T23:35:55.304Z,100.00
2022-12-05T23:38:21.809Z,100.00
2022-12-05T23:40:58.111Z,100.00
2022-12-05T23:43:24.514Z,100.00
2022-12-05T23:45:50.912Z,100.00
2022-12-05T23:48:17.345Z,100.00
2022-12-05T23:50:43.768Z,100.00
2022-12-05T23:53:11.110Z,100.00
2022-12-05T23:55:37.500Z,100.00
2022-12-05T23:58:04.085Z,100.00
